createdAt,value
2022-12-25T00:00:20.738Z,116.03
2022-12-25T00:05:22.931Z,112.37
2022-12-25T00:10:28.106Z,115.70
2022-12-25T00:15:36.860Z,106.73
2022-12-25T00:20:38.749Z,105.43
2022-12-25T00:25:44.505Z,103.70
2022-12-25T00:30:46.267Z,87.60
2022-12-25T00:35:58.996Z,89.33
2022-12-25T00:41:07.256Z,90.80
2022-12-25T00:46:13.310Z,87.13
2022-12-25T00:51:17.626Z,88.33
2022-12-25T00:56:21.891Z,84.77
2022-12-25T01:01:25.739Z,83.80
2022-12-25T01:06:27.849Z,89.90
2022-12-25T01:11:33.830Z,104.57
2022-12-25T01:16:36.046Z,124.90
2022-12-25T01:21:38.006Z,121.07
2022-12-25T01:26:39.802Z,134.47
2022-12-25T01:31:41.905Z,131.77
2022-12-25T01:36:45.946Z,192.13
2022-12-25T01:41:52.293Z,191.13
2022-12-25T01:46:56.231Z,246.13
2022-12-25T01:52:23.918Z,220.53
2022-12-25T01:57:29.289Z,271.33
2022-12-25T02:02:33.721Z,234.87
2022-12-25T02:07:51.076Z,207.13
2022-12-25T02:13:00.098Z,215.63
2022-12-25T02:18:32.611Z,161.67
2022-12-25T02:23:49.570Z,165.60
2022-12-25T02:28:54.071Z,152.03
2022-12-25T02:34:17.258Z,180.40
2022-12-25T02:39:50.868Z,150.83
2022-12-25T02:45:11.784Z,242.47
2022-12-25T02:50:40.871Z,156.90
2022-12-25T02:56:05.413Z,163.53
2022-12-25T03:01:32.015Z,134.33
2022-12-25T03:06:46.663Z,133.27
2022-12-25T03:11:58.605Z,104.90
2022-12-25T03:17:01.470Z,94.50
2022-12-25T03:22:26.290Z,110.33
2022-12-25T03:27:32.247Z,112.30
2022-12-25T03:32:51.754Z,200.73
2022-12-25T03:38:40.141Z,138.00
2022-12-25T03:44:32.842Z,134.87
2022-12-25T03:50:03.833Z,178.30
2022-12-25T03:55:28.767Z,151.80
2022-12-25T04:01:03.612Z,115.27
2022-12-25T04:06:25.846Z,104.33
2022-12-25T04:11:46.100Z,121.33
2022-12-25T04:17:06.510Z,98.73
2022-12-25T04:22:28.553Z,104.20
2022-12-25T04:27:50.628Z,111.27
2022-12-25T04:33:15.865Z,95.40
2022-12-25T04:38:20.853Z,103.70
2022-12-25T04:43:25.097Z,118.97
2022-12-25T04:48:31.414Z,104.77
2022-12-25T04:53:33.121Z,125.43
2022-12-25T04:58:34.829Z,112.63
2022-12-25T05:03:39.723Z,106.77
2022-12-25T05:08:41.572Z,100.33
2022-12-25T05:13:43.249Z,104.30
2022-12-25T05:18:45.283Z,121.82
2022-12-25T05:23:53.367Z,91.47
2022-12-25T05:28:55.417Z,103.27
2022-12-25T05:33:59.436Z,93.27
2022-12-25T05:39:01.191Z,102.73
2022-12-25T05:44:09.604Z,117.80
2022-12-25T05:49:11.355Z,113.83
2022-12-25T05:54:13.045Z,103.47
2022-12-25T05:59:21.458Z,95.70
2022-12-25T06:04:26.665Z,98.90
2022-12-25T06:09:30.730Z,104.93
2022-12-25T06:14:33.744Z,91.90
2022-12-25T06:19:38.122Z,101.73
2022-12-25T06:24:42.189Z,90.17
2022-12-25T06:29:43.934Z,83.37
2022-12-25T06:34:48.798Z,77.20
2022-12-25T06:39:50.715Z,97.37
2022-12-25T06:44:57.900Z,89.47
2022-12-25T06:50:05.768Z,85.60
2022-12-25T06:55:09.926Z,93.63
2022-12-25T07:00:14.379Z,105.80
2022-12-25T07:05:16.382Z,94.40
2022-12-25T07:10:18.109Z,94.13
2022-12-25T07:15:19.816Z,96.87
2022-12-25T07:20:21.823Z,93.93
2022-12-25T07:25:30.840Z,107.27
2022-12-25T07:30:38.128Z,111.20
2022-12-25T07:35:41.310Z,106.47
2022-12-25T07:40:46.034Z,107.10
2022-12-25T07:45:48.108Z,110.13
2022-12-25T07:50:55.987Z,122.10
2022-12-25T07:56:03.240Z,118.00
2022-12-25T08:01:11.835Z,122.53
2022-12-25T08:06:17.369Z,113.13
2022-12-25T08:11:22.983Z,113.80
2022-12-25T08:16:27.657Z,107.23
2022-12-25T08:21:29.590Z,102.87
2022-12-25T08:26:39.290Z,110.70
2022-12-25T08:31:46.133Z,109.40
2022-12-25T08:36:48.472Z,115.53
2022-12-25T08:41:50.173Z,106.03
2022-12-25T08:46:51.851Z,102.23
2022-12-25T08:51:58.313Z,107.87
2022-12-25T08:57:03.205Z,99.13
2022-12-25T09:02:05.547Z,101.17
2022-12-25T09:07:07.390Z,107.57
2022-12-25T09:12:10.087Z,79.80
2022-12-25T09:17:11.961Z,88.73
2022-12-25T09:22:19.315Z,67.90
2022-12-25T09:27:21.015Z,79.17
2022-12-25T09:32:22.821Z,72.60
2022-12-25T09:37:24.783Z,79.80
2022-12-25T09:42:31.292Z,106.50
2022-12-25T09:47:35.977Z,71.97
2022-12-25T09:53:17.380Z,71.97
2022-12-25T09:58:19.116Z,63.07
2022-12-25T10:04:02.680Z,64.23
2022-12-25T10:09:10.321Z,58.33
2022-12-25T10:14:33.956Z,64.13
2022-12-25T10:19:41.585Z,81.07
2022-12-25T10:24:56.042Z,63.57
2022-12-25T10:29:58.759Z,61.47
2022-12-25T10:35:01.485Z,67.57
2022-12-25T10:40:04.159Z,59.23
2022-12-25T10:45:08.143Z,70.87
2022-12-25T10:50:22.446Z,99.70
2022-12-25T10:55:28.999Z,70.23
2022-12-25T11:00:32.780Z,64.77
2022-12-25T11:05:36.487Z,56.43
2022-12-25T11:10:56.404Z,52.10
2022-12-25T11:16:28.459Z,62.80
2022-12-25T11:21:30.356Z,61.10
2022-12-25T11:26:37.304Z,48.17
2022-12-25T11:31:43.396Z,54.53
2022-12-25T11:36:51.593Z,49.33
2022-12-25T11:42:14.942Z,54.17
2022-12-25T11:47:54.210Z,61.03
2022-12-25T11:53:03.735Z,46.07
2022-12-25T11:58:31.802Z,56.40
2022-12-25T12:03:39.976Z,53.10
2022-12-25T12:08:44.427Z,45.20
2022-12-25T12:14:29.614Z,51.20
2022-12-25T12:19:31.819Z,49.77
2022-12-25T12:24:45.657Z,43.83
2022-12-25T12:29:52.874Z,41.70
2022-12-25T12:34:55.117Z,44.70
2022-12-25T12:39:57.285Z,40.63
2022-12-25T12:45:32.259Z,42.47
2022-12-25T12:50:42.903Z,43.83
2022-12-25T12:55:44.958Z,46.13
2022-12-25T13:00:52.718Z,36.83
2022-12-25T13:06:23.845Z,39.23
2022-12-25T13:11:32.868Z,33.07
2022-12-25T13:16:42.601Z,43.10
2022-12-25T13:21:53.359Z,34.53
2022-12-25T13:26:57.541Z,32.33
2022-12-25T13:32:00.767Z,34.23
2022-12-25T13:37:17.008Z,39.87
2022-12-25T13:42:21.136Z,28.53
2022-12-25T13:47:29.703Z,37.50
2022-12-25T13:52:36.550Z,26.97
2022-12-25T13:57:44.991Z,31.43
2022-12-25T14:02:48.229Z,35.40
2022-12-25T14:07:54.884Z,28.40
2022-12-25T14:13:02.916Z,28.67
2022-12-25T14:18:06.433Z,26.93
2022-12-25T14:23:14.956Z,25.80
2022-12-25T14:28:22.191Z,31.03
2022-12-25T14:33:26.720Z,26.47
2022-12-25T14:38:35.044Z,26.75
2022-12-25T14:43:36.820Z,28.77
2022-12-25T14:48:38.538Z,23.80
2022-12-25T14:53:51.962Z,26.90
2022-12-25T14:58:57.869Z,26.87
2022-12-25T15:04:08.606Z,27.13
2022-12-25T15:09:15.949Z,35.17
2022-12-25T15:14:17.776Z,51.40
2022-12-25T15:19:28.277Z,40.67
2022-12-25T15:24:32.257Z,29.60
2022-12-25T15:30:08.590Z,31.33
2022-12-25T15:35:01.181Z,33.73
2022-12-25T15:40:06.911Z,32.37
2022-12-25T15:45:26.440Z,33.57
2022-12-25T15:50:32.618Z,30.07
2022-12-25T15:55:36.647Z,36.50
2022-12-25T16:00:40.893Z,38.03
2022-12-25T16:05:42.657Z,38.07
2022-12-25T16:10:44.474Z,37.73
2022-12-25T16:15:53.135Z,39.43
2022-12-25T16:21:01.138Z,44.33
2022-12-25T16:26:06.870Z,38.43
2022-12-25T16:31:08.904Z,37.60
2022-12-25T16:36:11.571Z,34.67
2022-12-25T16:41:14.277Z,32.83
2022-12-25T16:46:18.787Z,33.67
2022-12-25T16:51:24.779Z,45.30
2022-12-25T16:56:30.738Z,32.63
2022-12-25T17:01:32.934Z,37.67
2022-12-25T17:06:34.957Z,37.60
2022-12-25T17:11:41.084Z,35.93
2022-12-25T17:16:42.969Z,54.50
2022-12-25T17:21:49.170Z,49.37
2022-12-25T17:26:53.365Z,41.83
2022-12-25T17:31:57.588Z,64.17
2022-12-25T17:36:59.488Z,42.73
2022-12-25T17:42:03.437Z,43.57
2022-12-25T17:47:07.714Z,48.37
2022-12-25T17:52:10.402Z,47.93
2022-12-25T17:57:15.052Z,56.10
2022-12-25T18:02:16.914Z,45.97
2022-12-25T18:07:21.073Z,45.70
2022-12-25T18:12:22.813Z,39.93
2022-12-25T18:17:25.650Z,42.27
2022-12-25T18:22:27.502Z,45.10
2022-12-25T18:27:29.214Z,50.57
2022-12-25T18:32:33.289Z,38.07
2022-12-25T18:37:40.062Z,54.73
2022-12-25T18:42:43.305Z,41.80
2022-12-25T18:47:47.859Z,43.00
2022-12-25T18:52:51.884Z,38.97
2022-12-25T18:57:59.637Z,57.70
2022-12-25T19:03:01.510Z,46.17
2022-12-25T19:08:07.103Z,60.83
2022-12-25T19:13:11.161Z,48.30
2022-12-25T19:18:12.958Z,48.87
2022-12-25T19:23:17.020Z,63.60
2022-12-25T19:28:21.302Z,49.33
2022-12-25T19:33:25.229Z,68.63
2022-12-25T19:38:29.492Z,51.97
2022-12-25T19:43:33.661Z,53.10
2022-12-25T19:48:35.536Z,61.40
2022-12-25T19:53:39.503Z,108.83
2022-12-25T19:58:41.233Z,88.70
2022-12-25T20:03:46.316Z,68.37
2022-12-25T20:08:59.189Z,61.47
2022-12-25T20:14:03.235Z,48.20
2022-12-25T20:19:08.009Z,50.47
2022-12-25T20:24:12.505Z,46.90
2022-12-25T20:29:15.011Z,45.73
2022-12-25T20:34:16.837Z,46.07
2022-12-25T20:39:20.586Z,52.03
2022-12-25T20:44:22.346Z,50.53
2022-12-25T20:49:27.870Z,51.90
2022-12-25T20:54:32.022Z,59.57
2022-12-25T20:59:37.603Z,53.17
2022-12-25T21:04:40.873Z,45.33
2022-12-25T21:09:45.515Z,59.00
2022-12-25T21:14:52.600Z,41.47
2022-12-25T21:19:54.317Z,58.47
2022-12-25T21:25:03.751Z,52.10
2022-12-25T21:30:14.996Z,67.80
2022-12-25T21:35:17.569Z,44.30
2022-12-25T21:40:21.584Z,41.40
2022-12-25T21:45:25.900Z,72.70
2022-12-25T21:50:48.918Z,49.10
2022-12-25T21:56:02.477Z,38.00
2022-12-25T22:01:04.445Z,202.47
2022-12-25T22:06:29.120Z,35.50
2022-12-25T22:11:49.239Z,28.03
2022-12-25T22:17:09.560Z,39.30
2022-12-25T22:22:24.298Z,41.23
2022-12-25T22:27:35.735Z,36.33
2022-12-25T22:32:39.683Z,74.73
2022-12-25T22:37:42.312Z,187.23
2022-12-25T22:42:44.428Z,234.43
2022-12-25T22:47:51.151Z,242.33
2022-12-25T22:53:00.124Z,354.87
2022-12-25T22:58:04.708Z,295.23
2022-12-25T23:03:09.035Z,272.37
2022-12-25T23:08:20.274Z,382.37
2022-12-25T23:13:40.620Z,285.50
2022-12-25T23:19:03.086Z,220.47
2022-12-25T23:24:24.169Z,190.57
2022-12-25T23:29:37.834Z,154.60
2022-12-25T23:34:46.040Z,100.30
2022-12-25T23:39:50.499Z,126.63
2022-12-25T23:44:53.001Z,141.07
2022-12-25T23:49:57.659Z,150.03
2022-12-25T23:54:59.393Z,310.27
